Terminal Aerodrome Forecast
Issued by NWS Sioux Falls, SD

Home | Current Version | Previous Version | Graphics & Text | Print | Product List | Glossary Off
Versions: 1 2 3 4 5 6 7 8 9 10 11 12 13 14 15 16 17 18 19 20 21 22 23 24 25 26 27 28 29 30

000
FTUS43 KFSD 311128
TAFSUX
TAF
KSUX 311128Z 3112/0112 11007KT P6SM BKN060
     FM311800 07007KT P6SM OVC012
     FM312000 06010KT 5SM -RASN OVC008
     FM312300 07010KT 1 1/2SM -SN OVC008
     FM010300 04015G22KT 3/4SM -SN OVC006
     FM011000 36018G25KT 2SM -SN OVC008=

USA.gov is the U.S. government's official web portal to all federal, state and local government web resources and services.